Main page
METAR-TAF:

METAR-TAF

Airports :

Basra, Iraq

Basra International Airport

latitude: 30-32-56N, longitude: 47-39-45E, elevation: 1 m

Current weather observation

The report was made 14 hours and 25 minutes ago, at 17:00 UTC
Wind 19 kt from the West/Northwest
Temperature 45°C
Humidity 10%
Pressure 1002 hPa
Visibility 10 km or more
no clouds below 1500 m and no cumulonimbus

METAR: ORMM 191700Z 30019KT CAVOK 45/06 Q1002 NOSIG

Time: 10:25 (07:25 UTC)

Forecast

The report was made 3 hours and 25 minutes ago, at 04:00 UTC
Forecast valid from 19 at 06 UTC to 20 at 06 UTC
Wind 10 kt from the West/Northwest
Visibility: 8000 m

TAF: ORMM 190400Z 1906/2006 30010KT 8000 NSC

Weather observations and forecasts of more than 4000 airports (METAR and TAF reports).

The available stations are represented by yellow and red dots on the map.

Hover mouse over dot to see the name of the station.

Then click to see weather observations and forecasts.

To change the map : click on the green buttons with a black cross to zoom in, on the green button with a dash to zoom out, or on the green arrows for adjacent maps.


METAR-TAF: